KLM21E EHAM-EKCH
Flight info
| Callsign | KLM21E |
|---|---|
| Flight time | N/A |
| Altitude | 35000 |
| Route | ANDIK N873 JUIST DCT DOSUR P729 TUDLO |
| Aircraft | B738/M-SDE2E3FGHIRWXY/LB1 |
Departure
| Time | 2026-04-30 19:27 |
|---|---|
| Airport | Amsterdam Airport Schiphol (EHAM) |
Arrival
| Time | N/A |
|---|---|
| Airport | Copenhagen Kastrup Airport (EKCH) |
| Time | Latitude | Longitude | Altitude | Speed | Heading |
|---|---|---|---|---|---|
| 2026-04-30 19:03 | 52.30316 | 4.76252 | -4 ft | 0 kts | 57° |
| 2026-04-30 19:14 | 52.30312 | 4.76243 | -4 ft | 2 kts | 57° |
| 2026-04-30 19:14 | 52.30303 | 4.76221 | -4 ft | 2 kts | 57° |
| 2026-04-30 19:15 | 52.30294 | 4.76198 | -4 ft | 2 kts | 68° |
| 2026-04-30 19:15 | 52.30298 | 4.76164 | -4 ft | 0 kts | 149° |
| 2026-04-30 19:19 | 52.30282 | 4.76180 | -4 ft | 11 kts | 148° |
| 2026-04-30 19:19 | 52.30216 | 4.76243 | -4 ft | 11 kts | 175° |
| 2026-04-30 19:19 | 52.30116 | 4.76053 | -4 ft | 15 kts | 237° |
| 2026-04-30 19:20 | 52.30058 | 4.75905 | -4 ft | 15 kts | 237° |
| 2026-04-30 19:20 | 52.30002 | 4.75763 | -4 ft | 15 kts | 238° |
| 2026-04-30 19:20 | 52.29884 | 4.75448 | -3 ft | 16 kts | 238° |
| 2026-04-30 19:21 | 52.29836 | 4.75292 | -3 ft | 15 kts | 258° |
| 2026-04-30 19:21 | 52.29933 | 4.75027 | -4 ft | 14 kts | 311° |
| 2026-04-30 19:22 | 52.30120 | 4.74678 | -4 ft | 24 kts | 311° |
| 2026-04-30 19:22 | 52.30452 | 4.74193 | -4 ft | 20 kts | 354° |
| 2026-04-30 19:23 | 52.30816 | 4.74227 | -4 ft | 16 kts | 3° |
| 2026-04-30 19:24 | 52.31053 | 4.74250 | -4 ft | 27 kts | 3° |
| 2026-04-30 19:24 | 52.31303 | 4.74273 | -4 ft | 44 kts | 4° |
| 2026-04-30 19:24 | 52.31415 | 4.74469 | -4 ft | 5 kts | 111° |
| 2026-04-30 19:25 | 52.31504 | 4.74678 | -4 ft | 18 kts | 4° |
| 2026-04-30 19:26 | 52.31667 | 4.74726 | -2 ft | 0 kts | 82° |
| 2026-04-30 19:26 | 52.31668 | 4.74738 | -3 ft | 9 kts | 83° |
| 2026-04-30 19:26 | 52.31685 | 4.75213 | -4 ft | 89 kts | 86° |
| 2026-04-30 19:27 | 52.31810 | 4.78861 | 1004 ft | 201 kts | 89° |
| 2026-04-30 19:27 | 52.31991 | 4.83529 | 3199 ft | 215 kts | 90° |
| 2026-04-30 19:28 | 52.32132 | 4.86045 | 3702 ft | 233 kts | 88° |
| 2026-04-30 19:28 | 52.33003 | 4.91461 | 5299 ft | 259 kts | 64° |
| 2026-04-30 19:29 | 52.35812 | 4.95294 | 6306 ft | 283 kts | 19° |
| 2026-04-30 19:29 | 52.37774 | 4.95621 | 6327 ft | 290 kts | 5° |
| 2026-04-30 19:30 | 52.43826 | 4.95407 | 6317 ft | 289 kts | 2° |
| 2026-04-30 19:30 | 52.47828 | 4.95362 | 6307 ft | 284 kts | 16° |
| 2026-04-30 19:31 | 52.51050 | 4.98755 | 7367 ft | 278 kts | 44° |
| 2026-04-30 19:31 | 52.52547 | 5.00752 | 8396 ft | 277 kts | 43° |
| 2026-04-30 19:31 | 52.55641 | 5.04728 | 10189 ft | 287 kts | 42° |
| 2026-04-30 19:32 | 52.57228 | 5.06754 | 11040 ft | 289 kts | 46° |
| 2026-04-30 19:32 | 52.58647 | 5.09111 | 11896 ft | 289 kts | 52° |
| 2026-04-30 19:32 | 52.60001 | 5.11583 | 12743 ft | 293 kts | 53° |
| 2026-04-30 19:32 | 52.61344 | 5.14086 | 13582 ft | 297 kts | 53° |
| 2026-04-30 19:33 | 52.62713 | 5.16653 | 14391 ft | 301 kts | 53° |
| 2026-04-30 19:33 | 52.64104 | 5.19260 | 15134 ft | 304 kts | 53° |
| 2026-04-30 19:33 | 52.65514 | 5.21900 | 15895 ft | 308 kts | 53° |
| 2026-04-30 19:33 | 52.66940 | 5.24567 | 16655 ft | 311 kts | 53° |
| 2026-04-30 19:34 | 52.68381 | 5.27262 | 17403 ft | 315 kts | 53° |
| 2026-04-30 19:34 | 52.69842 | 5.29992 | 18154 ft | 319 kts | 53° |
| 2026-04-30 19:34 | 52.72815 | 5.35548 | 19522 ft | 326 kts | 52° |
| 2026-04-30 19:35 | 52.74322 | 5.38367 | 20181 ft | 329 kts | 52° |
| 2026-04-30 19:35 | 52.75846 | 5.41222 | 20823 ft | 333 kts | 52° |
| 2026-04-30 19:35 | 52.77364 | 5.44069 | 21454 ft | 336 kts | 52° |
| 2026-04-30 19:35 | 52.78920 | 5.46991 | 22023 ft | 343 kts | 51° |
| 2026-04-30 19:36 | 52.80539 | 5.50040 | 22130 ft | 362 kts | 51° |
| 2026-04-30 19:36 | 52.82242 | 5.53251 | 22262 ft | 380 kts | 51° |
| 2026-04-30 19:36 | 52.85871 | 5.60102 | 22533 ft | 411 kts | 51° |
| 2026-04-30 19:37 | 52.87772 | 5.63693 | 22895 ft | 418 kts | 51° |
| 2026-04-30 19:37 | 52.89696 | 5.67331 | 23448 ft | 420 kts | 51° |
| 2026-04-30 19:37 | 52.91626 | 5.70985 | 24004 ft | 423 kts | 51° |
| 2026-04-30 19:37 | 52.93566 | 5.74663 | 24433 ft | 425 kts | 51° |
| 2026-04-30 19:38 | 52.95520 | 5.78375 | 24876 ft | 428 kts | 51° |
| 2026-04-30 19:38 | 52.97481 | 5.82108 | 25313 ft | 430 kts | 51° |
| 2026-04-30 19:38 | 52.99450 | 5.85862 | 25745 ft | 433 kts | 50° |
| 2026-04-30 19:38 | 53.01432 | 5.89646 | 26184 ft | 434 kts | 50° |
| 2026-04-30 19:39 | 53.03408 | 5.93427 | 26788 ft | 431 kts | 50° |
| 2026-04-30 19:39 | 53.05367 | 5.97179 | 27442 ft | 428 kts | 50° |
| 2026-04-30 19:39 | 53.07314 | 6.00914 | 28030 ft | 426 kts | 50° |
| 2026-04-30 19:39 | 53.09249 | 6.04632 | 28591 ft | 425 kts | 50° |
| 2026-04-30 19:40 | 53.11182 | 6.08351 | 29162 ft | 423 kts | 50° |
| 2026-04-30 19:40 | 53.13103 | 6.12054 | 29728 ft | 422 kts | 50° |
| 2026-04-30 19:40 | 53.15018 | 6.15750 | 30312 ft | 420 kts | 50° |
| 2026-04-30 19:40 | 53.16898 | 6.19386 | 30776 ft | 419 kts | 50° |
| 2026-04-30 19:41 | 53.18801 | 6.23070 | 31238 ft | 418 kts | 50° |
| 2026-04-30 19:41 | 53.20700 | 6.26752 | 31671 ft | 417 kts | 50° |
| 2026-04-30 19:41 | 53.22587 | 6.30418 | 32131 ft | 416 kts | 50° |
| 2026-04-30 19:41 | 53.24471 | 6.34082 | 32584 ft | 414 kts | 49° |
| 2026-04-30 19:42 | 53.26345 | 6.37732 | 33017 ft | 413 kts | 49° |
| 2026-04-30 19:42 | 53.27585 | 6.40149 | 33297 ft | 413 kts | 49° |
| 2026-04-30 19:42 | 53.29452 | 6.43796 | 33736 ft | 412 kts | 49° |
| 2026-04-30 19:42 | 53.31915 | 6.48612 | 34297 ft | 410 kts | 49° |
| 2026-04-30 19:43 | 53.33146 | 6.51023 | 34547 ft | 409 kts | 49° |
| 2026-04-30 19:43 | 53.34995 | 6.54649 | 34870 ft | 409 kts | 49° |
| 2026-04-30 19:43 | 53.36867 | 6.58326 | 35185 ft | 409 kts | 49° |
| 2026-04-30 19:44 | 53.40536 | 6.65547 | 35377 ft | 410 kts | 49° |
| 2026-04-30 19:44 | 53.44227 | 6.72833 | 35394 ft | 410 kts | 49° |
| 2026-04-30 19:45 | 53.47909 | 6.80122 | 35408 ft | 409 kts | 49° |
| 2026-04-30 19:45 | 53.51581 | 6.87412 | 35412 ft | 408 kts | 49° |
| 2026-04-30 19:46 | 53.55250 | 6.94718 | 35417 ft | 408 kts | 49° |
| 2026-04-30 19:46 | 53.58911 | 7.02030 | 35416 ft | 408 kts | 49° |
| 2026-04-30 19:47 | 53.62551 | 7.09323 | 35419 ft | 408 kts | 49° |
| 2026-04-30 19:47 | 53.66193 | 7.16640 | 35415 ft | 408 kts | 49° |
| 2026-04-30 19:48 | 53.69844 | 7.23996 | 35412 ft | 408 kts | 49° |
| 2026-04-30 19:48 | 53.73463 | 7.31309 | 35412 ft | 408 kts | 49° |
| 2026-04-30 19:49 | 53.77108 | 7.38698 | 35416 ft | 409 kts | 49° |
| 2026-04-30 19:49 | 53.82580 | 7.49831 | 35423 ft | 409 kts | 49° |
| 2026-04-30 19:50 | 53.86200 | 7.57224 | 35427 ft | 410 kts | 49° |
| 2026-04-30 19:50 | 53.89841 | 7.64682 | 35435 ft | 410 kts | 49° |
| 2026-04-30 19:51 | 53.93478 | 7.72155 | 35438 ft | 410 kts | 49° |
| 2026-04-30 19:51 | 53.97108 | 7.79635 | 35442 ft | 410 kts | 49° |
| 2026-04-30 19:52 | 54.00734 | 7.87129 | 35443 ft | 411 kts | 49° |
| 2026-04-30 19:52 | 54.04358 | 7.94644 | 35446 ft | 411 kts | 49° |
| 2026-04-30 19:53 | 54.07961 | 8.02136 | 35449 ft | 411 kts | 49° |
| 2026-04-30 19:53 | 54.11574 | 8.09673 | 35448 ft | 411 kts | 49° |
| 2026-04-30 19:54 | 54.15250 | 8.17361 | 35461 ft | 423 kts | 49° |
| 2026-04-30 19:54 | 54.19004 | 8.25239 | 35459 ft | 435 kts | 50° |
| 2026-04-30 19:55 | 54.22844 | 8.33324 | 35455 ft | 438 kts | 50° |
| 2026-04-30 19:55 | 54.26683 | 8.41438 | 35450 ft | 439 kts | 50° |
| 2026-04-30 19:56 | 54.30515 | 8.49561 | 35447 ft | 438 kts | 50° |
| 2026-04-30 19:56 | 54.34329 | 8.57673 | 35442 ft | 436 kts | 50° |
| 2026-04-30 19:57 | 54.38120 | 8.65762 | 35442 ft | 433 kts | 50° |
| 2026-04-30 19:57 | 54.41860 | 8.73766 | 35439 ft | 431 kts | 50° |
| 2026-04-30 19:58 | 54.45601 | 8.81800 | 35441 ft | 429 kts | 50° |
| 2026-04-30 19:58 | 54.49327 | 8.89827 | 35438 ft | 428 kts | 50° |
| 2026-04-30 19:59 | 54.53039 | 8.97851 | 35446 ft | 428 kts | 50° |
| 2026-04-30 20:00 | 54.58590 | 9.09896 | 35436 ft | 429 kts | 50° |
| 2026-04-30 20:00 | 54.62299 | 9.17977 | 35445 ft | 429 kts | 50° |
| 2026-04-30 20:01 | 54.67840 | 9.30102 | 35446 ft | 431 kts | 50° |
| 2026-04-30 20:01 | 54.71550 | 9.38252 | 35442 ft | 432 kts | 50° |
| 2026-04-30 20:02 | 54.77127 | 9.50557 | 35440 ft | 433 kts | 50° |
| 2026-04-30 20:03 | 54.80862 | 9.58828 | 34729 ft | 438 kts | 50° |
| 2026-04-30 20:03 | 54.82738 | 9.62995 | 34046 ft | 437 kts | 50° |
| 2026-04-30 20:03 | 54.84600 | 9.67139 | 33567 ft | 432 kts | 50° |
| 2026-04-30 20:03 | 54.86415 | 9.71186 | 33059 ft | 428 kts | 50° |
| 2026-04-30 20:04 | 54.88232 | 9.75246 | 32617 ft | 423 kts | 50° |
| 2026-04-30 20:04 | 54.90034 | 9.79275 | 32147 ft | 419 kts | 50° |
| 2026-04-30 20:04 | 54.91811 | 9.83255 | 31686 ft | 414 kts | 50° |
| 2026-04-30 20:05 | 54.95310 | 9.91110 | 30809 ft | 407 kts | 50° |
| 2026-04-30 20:05 | 54.97016 | 9.94949 | 30350 ft | 403 kts | 50° |
| 2026-04-30 20:05 | 55.00403 | 10.02588 | 29414 ft | 393 kts | 50° |
| 2026-04-30 20:06 | 55.02068 | 10.06353 | 28970 ft | 389 kts | 50° |
| 2026-04-30 20:06 | 55.03709 | 10.10066 | 28529 ft | 384 kts | 50° |
| 2026-04-30 20:06 | 55.05330 | 10.13742 | 28094 ft | 380 kts | 50° |
| 2026-04-30 20:06 | 55.06933 | 10.17382 | 27651 ft | 376 kts | 50° |
| 2026-04-30 20:07 | 55.08520 | 10.20989 | 27211 ft | 373 kts | 50° |
| 2026-04-30 20:07 | 55.10091 | 10.24567 | 26785 ft | 370 kts | 50° |
| 2026-04-30 20:07 | 55.13189 | 10.31635 | 25942 ft | 366 kts | 50° |
| 2026-04-30 20:08 | 55.14732 | 10.35164 | 25523 ft | 364 kts | 51° |
| 2026-04-30 20:08 | 55.16267 | 10.38681 | 25112 ft | 363 kts | 51° |
| 2026-04-30 20:08 | 55.17803 | 10.42203 | 24697 ft | 363 kts | 51° |
| 2026-04-30 20:08 | 55.19329 | 10.45710 | 24281 ft | 361 kts | 51° |
| 2026-04-30 20:09 | 55.20844 | 10.49194 | 23836 ft | 358 kts | 51° |
| 2026-04-30 20:09 | 55.22349 | 10.52663 | 23363 ft | 356 kts | 51° |
| 2026-04-30 20:09 | 55.25298 | 10.59467 | 22530 ft | 348 kts | 51° |
| 2026-04-30 20:10 | 55.27947 | 10.66473 | 21762 ft | 343 kts | 68° |
| 2026-04-30 20:10 | 55.28667 | 10.70437 | 21446 ft | 341 kts | 71° |
| 2026-04-30 20:10 | 55.29322 | 10.74439 | 21072 ft | 340 kts | 71° |
| 2026-04-30 20:11 | 55.30625 | 10.82409 | 20265 ft | 342 kts | 71° |
| 2026-04-30 20:11 | 55.31298 | 10.86414 | 19863 ft | 341 kts | 71° |
| 2026-04-30 20:11 | 55.31971 | 10.90390 | 19457 ft | 338 kts | 71° |
| 2026-04-30 20:12 | 55.33301 | 10.98262 | 18664 ft | 334 kts | 71° |
| 2026-04-30 20:12 | 55.33953 | 11.02160 | 18222 ft | 332 kts | 71° |
| 2026-04-30 20:12 | 55.34597 | 11.06038 | 17809 ft | 329 kts | 71° |
| 2026-04-30 20:13 | 55.35234 | 11.09876 | 17420 ft | 326 kts | 72° |
| 2026-04-30 20:13 | 55.35864 | 11.13686 | 17025 ft | 323 kts | 72° |
| 2026-04-30 20:13 | 55.36488 | 11.17463 | 16630 ft | 320 kts | 72° |
| 2026-04-30 20:13 | 55.37099 | 11.21162 | 16259 ft | 318 kts | 72° |
| 2026-04-30 20:14 | 55.37712 | 11.24890 | 15878 ft | 316 kts | 72° |
| 2026-04-30 20:14 | 55.38320 | 11.28589 | 15500 ft | 314 kts | 72° |
| 2026-04-30 20:14 | 55.38923 | 11.32266 | 15131 ft | 312 kts | 72° |
| 2026-04-30 20:14 | 55.39521 | 11.35919 | 14761 ft | 310 kts | 72° |
| 2026-04-30 20:15 | 55.40115 | 11.39558 | 14395 ft | 308 kts | 73° |
| 2026-04-30 20:15 | 55.40703 | 11.43168 | 13988 ft | 307 kts | 73° |
| 2026-04-30 20:15 | 55.41289 | 11.46776 | 13579 ft | 305 kts | 73° |
| 2026-04-30 20:15 | 55.41871 | 11.50356 | 13182 ft | 303 kts | 73° |
| 2026-04-30 20:16 | 55.42445 | 11.53895 | 12801 ft | 302 kts | 73° |
| 2026-04-30 20:16 | 55.43017 | 11.57439 | 12649 ft | 297 kts | 73° |
| 2026-04-30 20:16 | 55.43579 | 11.60926 | 12513 ft | 298 kts | 73° |
| 2026-04-30 20:16 | 55.44326 | 11.64356 | 12302 ft | 303 kts | 58° |
| 2026-04-30 20:17 | 55.45497 | 11.67395 | 12299 ft | 298 kts | 54° |
| 2026-04-30 20:17 | 55.46693 | 11.70393 | 12159 ft | 300 kts | 54° |
| 2026-04-30 20:17 | 55.47906 | 11.73490 | 11642 ft | 309 kts | 55° |
| 2026-04-30 20:17 | 55.49120 | 11.76605 | 11287 ft | 306 kts | 55° |
| 2026-04-30 20:18 | 55.50314 | 11.79668 | 11009 ft | 300 kts | 55° |
| 2026-04-30 20:18 | 55.51486 | 11.82675 | 10734 ft | 296 kts | 55° |
| 2026-04-30 20:18 | 55.52653 | 11.85669 | 10485 ft | 296 kts | 54° |
| 2026-04-30 20:18 | 55.53813 | 11.88666 | 10216 ft | 295 kts | 55° |
| 2026-04-30 20:19 | 55.54947 | 11.91634 | 9943 ft | 294 kts | 55° |
| 2026-04-30 20:19 | 55.55722 | 11.93667 | 9762 ft | 294 kts | 55° |
| 2026-04-30 20:19 | 55.57231 | 11.97631 | 9413 ft | 293 kts | 55° |
| 2026-04-30 20:19 | 55.58364 | 12.00608 | 9155 ft | 292 kts | 55° |
| 2026-04-30 20:20 | 55.59495 | 12.03582 | 8902 ft | 291 kts | 55° |
| 2026-04-30 20:20 | 55.60624 | 12.06555 | 8649 ft | 290 kts | 56° |
| 2026-04-30 20:20 | 55.61754 | 12.09521 | 8398 ft | 289 kts | 54° |
| 2026-04-30 20:20 | 55.63099 | 12.12155 | 8127 ft | 287 kts | 42° |
| 2026-04-30 20:21 | 55.64607 | 12.14412 | 7869 ft | 282 kts | 39° |
| 2026-04-30 20:21 | 55.66108 | 12.16598 | 7618 ft | 277 kts | 40° |
| 2026-04-30 20:21 | 55.67564 | 12.18741 | 7522 ft | 266 kts | 40° |
| 2026-04-30 20:21 | 55.68939 | 12.20792 | 7374 ft | 259 kts | 40° |
| 2026-04-30 20:22 | 55.70282 | 12.22817 | 7312 ft | 248 kts | 40° |
| 2026-04-30 20:22 | 55.71504 | 12.24916 | 7117 ft | 243 kts | 56° |
| 2026-04-30 20:22 | 55.72110 | 12.27636 | 7048 ft | 235 kts | 79° |
| 2026-04-30 20:22 | 55.72049 | 12.30515 | 6821 ft | 236 kts | 102° |
| 2026-04-30 20:23 | 55.71315 | 12.33132 | 6533 ft | 241 kts | 127° |
| 2026-04-30 20:23 | 55.70022 | 12.34972 | 6262 ft | 245 kts | 153° |